sensor_id;sensor_type;location;lat;lon;timestamp;P1;durP1;ratioP1;P2;durP2;ratioP2
51312;SDS011;37397;53.226;10.400;2022-11-20T00:00:15;13.07;;;7.25;;
51312;SDS011;37397;53.226;10.400;2022-11-20T00:02:42;15.48;;;7.55;;
51312;SDS011;37397;53.226;10.400;2022-11-20T00:05:09;13.10;;;8.10;;
51312;SDS011;37397;53.226;10.400;2022-11-20T00:07:36;13.13;;;8.00;;
51312;SDS011;37397;53.226;10.400;2022-11-20T00:10:02;13.77;;;8.18;;
51312;SDS011;37397;53.226;10.400;2022-11-20T00:12:29;12.15;;;7.43;;
51312;SDS011;37397;53.226;10.400;2022-11-20T00:14:56;13.93;;;7.85;;
51312;SDS011;37397;53.226;10.400;2022-11-20T00:17:22;12.13;;;7.50;;
51312;SDS011;37397;53.226;10.400;2022-11-20T00:19:52;12.45;;;7.57;;
51312;SDS011;37397;53.226;10.400;2022-11-20T00:22:19;10.65;;;7.00;;
51312;SDS011;37397;53.226;10.400;2022-11-20T00:24:45;14.13;;;7.72;;
51312;SDS011;37397;53.226;10.400;2022-11-20T00:27:12;13.95;;;7.40;;
51312;SDS011;37397;53.226;10.400;2022-11-20T00:29:39;12.32;;;7.28;;
51312;SDS011;37397;53.226;10.400;2022-11-20T00:32:05;14.52;;;7.78;;
51312;SDS011;37397;53.226;10.400;2022-11-20T00:34:32;14.38;;;7.45;;
51312;SDS011;37397;53.226;10.400;2022-11-20T00:36:59;12.15;;;6.95;;
51312;SDS011;37397;53.226;10.400;2022-11-20T00:39:25;13.25;;;8.38;;
51312;SDS011;37397;53.226;10.400;2022-11-20T00:41:52;11.77;;;7.65;;
51312;SDS011;37397;53.226;10.400;2022-11-20T00:44:18;13.55;;;8.18;;
51312;SDS011;37397;53.226;10.400;2022-11-20T00:46:45;12.20;;;7.40;;
51312;SDS011;37397;53.226;10.400;2022-11-20T00:49:11;12.48;;;7.70;;
51312;SDS011;37397;53.226;10.400;2022-11-20T00:51:38;13.18;;;8.07;;
51312;SDS011;37397;53.226;10.400;2022-11-20T00:54:04;13.55;;;8.25;;
51312;SDS011;37397;53.226;10.400;2022-11-20T00:56:31;11.75;;;7.40;;
51312;SDS011;37397;53.226;10.400;2022-11-20T00:58:59;12.55;;;8.00;;
51312;SDS011;37397;53.226;10.400;2022-11-20T01:01:27;12.55;;;8.10;;
51312;SDS011;37397;53.226;10.400;2022-11-20T01:03:56;14.13;;;8.18;;
51312;SDS011;37397;53.226;10.400;2022-11-20T01:06:34;13.48;;;8.00;;
51312;SDS011;37397;53.226;10.400;2022-11-20T01:09:04;13.55;;;7.85;;
51312;SDS011;37397;53.226;10.400;2022-11-20T01:11:36;11.27;;;7.40;;
51312;SDS011;37397;53.226;10.400;2022-11-20T01:14:05;13.57;;;8.45;;
51312;SDS011;37397;53.226;10.400;2022-11-20T01:16:35;12.68;;;8.02;;
51312;SDS011;37397;53.226;10.400;2022-11-20T01:19:04;11.18;;;7.45;;
51312;SDS011;37397;53.226;10.400;2022-11-20T01:21:33;11.90;;;7.85;;
51312;SDS011;37397;53.226;10.400;2022-11-20T01:24:01;12.20;;;7.53;;
51312;SDS011;37397;53.226;10.400;2022-11-20T01:26:30;12.85;;;7.55;;
51312;SDS011;37397;53.226;10.400;2022-11-20T01:28:58;14.18;;;7.93;;
51312;SDS011;37397;53.226;10.400;2022-11-20T01:31:27;12.32;;;8.07;;
51312;SDS011;37397;53.226;10.400;2022-11-20T01:33:58;12.10;;;7.68;;
51312;SDS011;37397;53.226;10.400;2022-11-20T01:36:26;13.52;;;8.43;;
51312;SDS011;37397;53.226;10.400;2022-11-20T01:38:55;13.25;;;8.57;;
51312;SDS011;37397;53.226;10.400;2022-11-20T01:41:28;14.18;;;9.10;;
51312;SDS011;37397;53.226;10.400;2022-11-20T01:44:15;13.80;;;8.48;;
51312;SDS011;37397;53.226;10.400;2022-11-20T01:47:03;12.70;;;8.23;;
51312;SDS011;37397;53.226;10.400;2022-11-20T01:52:07;12.60;;;7.53;;
51312;SDS011;37397;53.226;10.400;2022-11-20T01:54:47;12.18;;;8.18;;
51312;SDS011;37397;53.226;10.400;2022-11-20T01:57:21;12.60;;;7.97;;
51312;SDS011;37397;53.226;10.400;2022-11-20T01:59:53;14.13;;;8.25;;
51312;SDS011;37397;53.226;10.400;2022-11-20T02:02:25;11.95;;;7.57;;
51312;SDS011;37397;53.226;10.400;2022-11-20T02:04:53;13.35;;;7.70;;
51312;SDS011;37397;53.226;10.400;2022-11-20T02:07:23;13.77;;;8.38;;
51312;SDS011;37397;53.226;10.400;2022-11-20T02:09:50;12.35;;;7.88;;
51312;SDS011;37397;53.226;10.400;2022-11-20T02:12:23;10.80;;;7.30;;
51312;SDS011;37397;53.226;10.400;2022-11-20T02:15:09;12.75;;;7.97;;
51312;SDS011;37397;53.226;10.400;2022-11-20T02:17:35;12.18;;;8.13;;
51312;SDS011;37397;53.226;10.400;2022-11-20T02:20:02;13.93;;;8.88;;
51312;SDS011;37397;53.226;10.400;2022-11-20T02:22:31;12.98;;;7.85;;
51312;SDS011;37397;53.226;10.400;2022-11-20T02:25:08;12.18;;;7.55;;
51312;SDS011;37397;53.226;10.400;2022-11-20T02:27:35;12.43;;;7.28;;
51312;SDS011;37397;53.226;10.400;2022-11-20T02:30:03;11.73;;;7.47;;
51312;SDS011;37397;53.226;10.400;2022-11-20T02:32:35;12.75;;;8.07;;
51312;SDS011;37397;53.226;10.400;2022-11-20T02:37:44;12.65;;;7.10;;
51312;SDS011;37397;53.226;10.400;2022-11-20T02:40:13;14.38;;;8.20;;
51312;SDS011;37397;53.226;10.400;2022-11-20T02:42:40;12.32;;;7.80;;
51312;SDS011;37397;53.226;10.400;2022-11-20T02:45:07;14.05;;;7.85;;
51312;SDS011;37397;53.226;10.400;2022-11-20T02:47:34;11.77;;;8.05;;
51312;SDS011;37397;53.226;10.400;2022-11-20T02:50:02;13.77;;;7.93;;
51312;SDS011;37397;53.226;10.400;2022-11-20T02:52:29;11.48;;;7.45;;
51312;SDS011;37397;53.226;10.400;2022-11-20T02:54:56;14.38;;;7.20;;
51312;SDS011;37397;53.226;10.400;2022-11-20T02:57:22;11.25;;;7.00;;
51312;SDS011;37397;53.226;10.400;2022-11-20T02:59:49;13.10;;;7.70;;
51312;SDS011;37397;53.226;10.400;2022-11-20T03:02:15;10.55;;;7.20;;
51312;SDS011;37397;53.226;10.400;2022-11-20T03:04:42;12.07;;;7.70;;
51312;SDS011;37397;53.226;10.400;2022-11-20T03:07:09;14.23;;;8.23;;
51312;SDS011;37397;53.226;10.400;2022-11-20T03:09:36;11.13;;;7.28;;
51312;SDS011;37397;53.226;10.400;2022-11-20T03:12:02;14.57;;;7.97;;
51312;SDS011;37397;53.226;10.400;2022-11-20T03:14:29;12.25;;;8.10;;
51312;SDS011;37397;53.226;10.400;2022-11-20T03:16:56;12.30;;;7.18;;
51312;SDS011;37397;53.226;10.400;2022-11-20T03:19:22;12.40;;;7.90;;
51312;SDS011;37397;53.226;10.400;2022-11-20T03:21:49;12.07;;;7.70;;
51312;SDS011;37397;53.226;10.400;2022-11-20T03:24:16;12.18;;;7.97;;
51312;SDS011;37397;53.226;10.400;2022-11-20T03:26:42;12.10;;;7.63;;
51312;SDS011;37397;53.226;10.400;2022-11-20T03:29:09;12.35;;;7.22;;
51312;SDS011;37397;53.226;10.400;2022-11-20T03:31:37;12.10;;;7.60;;
51312;SDS011;37397;53.226;10.400;2022-11-20T03:34:06;13.52;;;7.43;;
51312;SDS011;37397;53.226;10.400;2022-11-20T03:36:34;11.82;;;7.38;;
51312;SDS011;37397;53.226;10.400;2022-11-20T03:39:01;10.98;;;6.95;;
51312;SDS011;37397;53.226;10.400;2022-11-20T03:41:29;14.02;;;8.02;;
51312;SDS011;37397;53.226;10.400;2022-11-20T03:43:57;12.30;;;7.22;;
51312;SDS011;37397;53.226;10.400;2022-11-20T03:46:25;11.43;;;7.40;;
51312;SDS011;37397;53.226;10.400;2022-11-20T03:48:53;12.95;;;7.50;;
51312;SDS011;37397;53.226;10.400;2022-11-20T03:53:49;12.02;;;7.10;;
51312;SDS011;37397;53.226;10.400;2022-11-20T03:56:17;10.27;;;6.70;;
51312;SDS011;37397;53.226;10.400;2022-11-20T03:58:47;12.73;;;7.43;;
51312;SDS011;37397;53.226;10.400;2022-11-20T04:01:15;13.18;;;7.60;;
51312;SDS011;37397;53.226;10.400;2022-11-20T04:03:43;12.23;;;7.60;;
51312;SDS011;37397;53.226;10.400;2022-11-20T04:08:39;11.82;;;7.63;;
51312;SDS011;37397;53.226;10.400;2022-11-20T04:11:10;13.13;;;7.47;;
51312;SDS011;37397;53.226;10.400;2022-11-20T04:13:37;11.38;;;6.78;;
51312;SDS011;37397;53.226;10.400;2022-11-20T04:16:05;11.55;;;7.05;;
51312;SDS011;37397;53.226;10.400;2022-11-20T04:18:32;12.95;;;7.25;;
51312;SDS011;37397;53.226;10.400;2022-11-20T04:21:00;12.40;;;7.22;;
51312;SDS011;37397;53.226;10.400;2022-11-20T04:23:27;12.07;;;6.93;;
51312;SDS011;37397;53.226;10.400;2022-11-20T04:25:54;10.75;;;6.70;;
51312;SDS011;37397;53.226;10.400;2022-11-20T04:28:20;12.90;;;7.05;;
51312;SDS011;37397;53.226;10.400;2022-11-20T04:30:47;10.57;;;6.75;;
51312;SDS011;37397;53.226;10.400;2022-11-20T04:33:13;10.75;;;6.45;;
51312;SDS011;37397;53.226;10.400;2022-11-20T04:35:40;10.40;;;6.82;;
51312;SDS011;37397;53.226;10.400;2022-11-20T04:38:06;13.18;;;6.55;;
51312;SDS011;37397;53.226;10.400;2022-11-20T04:40:33;12.15;;;6.40;;
51312;SDS011;37397;53.226;10.400;2022-11-20T04:43:00;11.65;;;6.43;;
51312;SDS011;37397;53.226;10.400;2022-11-20T04:45:26;11.68;;;6.78;;
51312;SDS011;37397;53.226;10.400;2022-11-20T04:47:53;10.38;;;6.43;;
51312;SDS011;37397;53.226;10.400;2022-11-20T04:50:19;11.93;;;6.80;;
51312;SDS011;37397;53.226;10.400;2022-11-20T04:52:46;11.50;;;6.50;;
51312;SDS011;37397;53.226;10.400;2022-11-20T04:55:12;12.27;;;7.25;;
51312;SDS011;37397;53.226;10.400;2022-11-20T04:57:39;11.02;;;7.35;;
51312;SDS011;37397;53.226;10.400;2022-11-20T05:00:06;11.27;;;7.07;;
51312;SDS011;37397;53.226;10.400;2022-11-20T05:02:33;11.73;;;6.63;;
51312;SDS011;37397;53.226;10.400;2022-11-20T05:04:59;11.48;;;6.90;;
51312;SDS011;37397;53.226;10.400;2022-11-20T05:07:26;11.55;;;7.32;;
51312;SDS011;37397;53.226;10.400;2022-11-20T05:09:53;11.20;;;6.72;;
51312;SDS011;37397;53.226;10.400;2022-11-20T05:12:19;9.95;;;6.57;;
51312;SDS011;37397;53.226;10.400;2022-11-20T05:14:46;13.20;;;6.68;;
51312;SDS011;37397;53.226;10.400;2022-11-20T05:17:12;10.93;;;6.90;;
51312;SDS011;37397;53.226;10.400;2022-11-20T05:19:39;11.07;;;7.05;;
51312;SDS011;37397;53.226;10.400;2022-11-20T05:22:06;11.27;;;7.35;;
51312;SDS011;37397;53.226;10.400;2022-11-20T05:24:32;11.85;;;7.07;;
51312;SDS011;37397;53.226;10.400;2022-11-20T05:26:59;11.20;;;7.20;;
51312;SDS011;37397;53.226;10.400;2022-11-20T05:29:25;12.63;;;7.40;;
51312;SDS011;37397;53.226;10.400;2022-11-20T05:31:52;12.32;;;6.90;;
51312;SDS011;37397;53.226;10.400;2022-11-20T05:34:18;11.52;;;7.15;;
51312;SDS011;37397;53.226;10.400;2022-11-20T05:36:45;12.55;;;7.32;;
51312;SDS011;37397;53.226;10.400;2022-11-20T05:39:11;12.95;;;8.13;;
51312;SDS011;37397;53.226;10.400;2022-11-20T05:41:38;12.23;;;7.90;;
51312;SDS011;37397;53.226;10.400;2022-11-20T05:44:04;13.35;;;8.02;;
51312;SDS011;37397;53.226;10.400;2022-11-20T05:46:31;11.75;;;8.00;;
51312;SDS011;37397;53.226;10.400;2022-11-20T05:48:57;13.20;;;8.10;;
51312;SDS011;37397;53.226;10.400;2022-11-20T05:51:25;12.90;;;7.75;;
51312;SDS011;37397;53.226;10.400;2022-11-20T05:53:52;12.88;;;8.20;;
51312;SDS011;37397;53.226;10.400;2022-11-20T05:56:19;16.40;;;9.18;;
51312;SDS011;37397;53.226;10.400;2022-11-20T05:58:47;15.57;;;9.82;;
51312;SDS011;37397;53.226;10.400;2022-11-20T06:01:17;15.65;;;9.75;;
51312;SDS011;37397;53.226;10.400;2022-11-20T06:03:48;16.63;;;9.52;;
51312;SDS011;37397;53.226;10.400;2022-11-20T06:06:17;17.88;;;10.63;;
51312;SDS011;37397;53.226;10.400;2022-11-20T06:08:45;16.98;;;9.40;;
51312;SDS011;37397;53.226;10.400;2022-11-20T06:11:12;15.52;;;10.25;;
51312;SDS011;37397;53.226;10.400;2022-11-20T06:13:39;16.45;;;10.68;;
51312;SDS011;37397;53.226;10.400;2022-11-20T06:16:08;14.75;;;10.25;;
51312;SDS011;37397;53.226;10.400;2022-11-20T06:18:35;17.85;;;11.20;;
51312;SDS011;37397;53.226;10.400;2022-11-20T06:21:09;18.20;;;11.68;;
51312;SDS011;37397;53.226;10.400;2022-11-20T06:23:41;17.83;;;11.63;;
51312;SDS011;37397;53.226;10.400;2022-11-20T06:26:08;17.75;;;12.13;;
51312;SDS011;37397;53.226;10.400;2022-11-20T06:28:37;18.95;;;11.75;;
51312;SDS011;37397;53.226;10.400;2022-11-20T06:31:05;16.40;;;11.02;;
51312;SDS011;37397;53.226;10.400;2022-11-20T06:33:33;18.58;;;12.52;;
51312;SDS011;37397;53.226;10.400;2022-11-20T06:36:00;18.85;;;12.40;;
51312;SDS011;37397;53.226;10.400;2022-11-20T06:38:35;21.05;;;12.85;;
51312;SDS011;37397;53.226;10.400;2022-11-20T06:41:02;21.10;;;13.60;;
51312;SDS011;37397;53.226;10.400;2022-11-20T06:43:29;19.92;;;12.60;;
51312;SDS011;37397;53.226;10.400;2022-11-20T06:45:57;20.80;;;12.77;;
51312;SDS011;37397;53.226;10.400;2022-11-20T06:48:25;22.70;;;12.15;;
51312;SDS011;37397;53.226;10.400;2022-11-20T06:50:53;22.10;;;13.43;;
51312;SDS011;37397;53.226;10.400;2022-11-20T06:53:19;20.88;;;13.02;;
51312;SDS011;37397;53.226;10.400;2022-11-20T06:55:46;20.73;;;13.85;;
51312;SDS011;37397;53.226;10.400;2022-11-20T06:58:14;22.23;;;13.63;;
51312;SDS011;37397;53.226;10.400;2022-11-20T07:00:41;21.52;;;13.65;;
51312;SDS011;37397;53.226;10.400;2022-11-20T07:03:09;20.38;;;13.48;;
51312;SDS011;37397;53.226;10.400;2022-11-20T07:05:36;20.58;;;13.43;;
51312;SDS011;37397;53.226;10.400;2022-11-20T07:08:04;22.80;;;13.85;;
51312;SDS011;37397;53.226;10.400;2022-11-20T07:10:31;27.52;;;15.60;;
51312;SDS011;37397;53.226;10.400;2022-11-20T07:12:58;26.85;;;15.15;;
51312;SDS011;37397;53.226;10.400;2022-11-20T07:15:26;23.25;;;15.60;;
51312;SDS011;37397;53.226;10.400;2022-11-20T07:17:53;26.58;;;15.15;;
51312;SDS011;37397;53.226;10.400;2022-11-20T07:20:19;23.50;;;14.73;;
51312;SDS011;37397;53.226;10.400;2022-11-20T07:22:46;23.63;;;15.40;;
51312;SDS011;37397;53.226;10.400;2022-11-20T07:25:12;23.90;;;15.30;;
51312;SDS011;37397;53.226;10.400;2022-11-20T07:27:39;26.20;;;17.08;;
51312;SDS011;37397;53.226;10.400;2022-11-20T07:30:05;28.45;;;17.80;;
51312;SDS011;37397;53.226;10.400;2022-11-20T07:32:33;30.25;;;18.75;;
51312;SDS011;37397;53.226;10.400;2022-11-20T07:34:59;26.88;;;17.20;;
51312;SDS011;37397;53.226;10.400;2022-11-20T07:37:26;25.70;;;16.33;;
51312;SDS011;37397;53.226;10.400;2022-11-20T07:39:52;43.55;;;26.15;;
51312;SDS011;37397;53.226;10.400;2022-11-20T07:42:19;32.78;;;19.85;;
51312;SDS011;37397;53.226;10.400;2022-11-20T07:44:48;37.35;;;23.13;;
51312;SDS011;37397;53.226;10.400;2022-11-20T07:47:15;38.15;;;24.08;;
51312;SDS011;37397;53.226;10.400;2022-11-20T07:49:41;37.05;;;22.20;;
51312;SDS011;37397;53.226;10.400;2022-11-20T07:52:08;32.60;;;19.95;;
51312;SDS011;37397;53.226;10.400;2022-11-20T07:54:35;32.70;;;19.75;;
51312;SDS011;37397;53.226;10.400;2022-11-20T07:57:01;29.83;;;18.90;;
51312;SDS011;37397;53.226;10.400;2022-11-20T07:59:28;29.52;;;19.23;;
51312;SDS011;37397;53.226;10.400;2022-11-20T08:01:55;29.02;;;18.30;;
51312;SDS011;37397;53.226;10.400;2022-11-20T08:04:21;28.90;;;18.00;;
51312;SDS011;37397;53.226;10.400;2022-11-20T08:06:49;24.60;;;17.00;;
51312;SDS011;37397;53.226;10.400;2022-11-20T08:09:18;29.33;;;18.67;;
51312;SDS011;37397;53.226;10.400;2022-11-20T08:11:45;27.73;;;17.60;;
51312;SDS011;37397;53.226;10.400;2022-11-20T08:14:30;24.63;;;16.45;;
51312;SDS011;37397;53.226;10.400;2022-11-20T08:16:56;23.80;;;15.73;;
51312;SDS011;37397;53.226;10.400;2022-11-20T08:19:23;26.13;;;17.27;;
51312;SDS011;37397;53.226;10.400;2022-11-20T08:21:50;21.85;;;15.20;;
51312;SDS011;37397;53.226;10.400;2022-11-20T08:24:16;27.50;;;16.58;;
51312;SDS011;37397;53.226;10.400;2022-11-20T08:26:43;22.70;;;14.60;;
51312;SDS011;37397;53.226;10.400;2022-11-20T08:29:09;25.02;;;15.35;;
51312;SDS011;37397;53.226;10.400;2022-11-20T08:31:36;26.30;;;15.95;;
51312;SDS011;37397;53.226;10.400;2022-11-20T08:34:03;23.20;;;14.95;;
51312;SDS011;37397;53.226;10.400;2022-11-20T08:36:34;22.70;;;13.93;;
51312;SDS011;37397;53.226;10.400;2022-11-20T08:39:02;23.38;;;14.02;;
51312;SDS011;37397;53.226;10.400;2022-11-20T08:41:29;24.05;;;15.10;;
51312;SDS011;37397;53.226;10.400;2022-11-20T08:44:00;22.30;;;13.77;;
51312;SDS011;37397;53.226;10.400;2022-11-20T08:46:31;23.92;;;13.80;;
51312;SDS011;37397;53.226;10.400;2022-11-20T08:49:00;20.17;;;12.95;;
51312;SDS011;37397;53.226;10.400;2022-11-20T08:51:26;23.83;;;15.18;;
51312;SDS011;37397;53.226;10.400;2022-11-20T08:53:53;23.67;;;15.35;;
51312;SDS011;37397;53.226;10.400;2022-11-20T08:56:19;22.48;;;15.00;;
51312;SDS011;37397;53.226;10.400;2022-11-20T08:58:46;19.90;;;14.07;;
51312;SDS011;37397;53.226;10.400;2022-11-20T09:01:32;23.30;;;14.70;;
51312;SDS011;37397;53.226;10.400;2022-11-20T09:03:59;21.58;;;13.90;;
51312;SDS011;37397;53.226;10.400;2022-11-20T09:06:26;21.85;;;14.07;;
51312;SDS011;37397;53.226;10.400;2022-11-20T09:08:52;20.90;;;13.43;;
51312;SDS011;37397;53.226;10.400;2022-11-20T09:11:20;21.27;;;13.52;;
51312;SDS011;37397;53.226;10.400;2022-11-20T09:13:47;23.38;;;13.90;;
51312;SDS011;37397;53.226;10.400;2022-11-20T09:16:13;20.05;;;12.95;;
51312;SDS011;37397;53.226;10.400;2022-11-20T09:18:40;18.45;;;12.93;;
51312;SDS011;37397;53.226;10.400;2022-11-20T09:21:09;22.00;;;12.98;;
51312;SDS011;37397;53.226;10.400;2022-11-20T09:23:38;19.02;;;12.68;;
51312;SDS011;37397;53.226;10.400;2022-11-20T09:26:06;18.65;;;11.98;;
51312;SDS011;37397;53.226;10.400;2022-11-20T09:28:36;19.67;;;11.57;;
51312;SDS011;37397;53.226;10.400;2022-11-20T09:31:07;16.75;;;10.43;;
51312;SDS011;37397;53.226;10.400;2022-11-20T09:33:35;17.33;;;10.48;;
51312;SDS011;37397;53.226;10.400;2022-11-20T09:36:02;16.80;;;10.52;;
51312;SDS011;37397;53.226;10.400;2022-11-20T09:38:28;19.88;;;10.75;;
51312;SDS011;37397;53.226;10.400;2022-11-20T09:41:05;15.98;;;10.18;;
51312;SDS011;37397;53.226;10.400;2022-11-20T09:43:49;16.10;;;9.93;;
51312;SDS011;37397;53.226;10.400;2022-11-20T09:46:40;15.68;;;9.77;;
51312;SDS011;37397;53.226;10.400;2022-11-20T09:55:16;16.08;;;9.93;;
51312;SDS011;37397;53.226;10.400;2022-11-20T09:57:44;16.48;;;9.77;;
51312;SDS011;37397;53.226;10.400;2022-11-20T10:00:14;15.25;;;9.43;;
51312;SDS011;37397;53.226;10.400;2022-11-20T10:05:40;16.52;;;10.15;;
51312;SDS011;37397;53.226;10.400;2022-11-20T10:10:44;16.58;;;9.27;;
51312;SDS011;37397;53.226;10.400;2022-11-20T10:16:10;19.23;;;10.10;;
51312;SDS011;37397;53.226;10.400;2022-11-20T10:24:44;17.52;;;10.27;;
51312;SDS011;37397;53.226;10.400;2022-11-20T10:30:42;15.98;;;10.13;;
51312;SDS011;37397;53.226;10.400;2022-11-20T10:38:51;14.40;;;9.63;;
51312;SDS011;37397;53.226;10.400;2022-11-20T10:41:24;14.97;;;10.17;;
51312;SDS011;37397;53.226;10.400;2022-11-20T10:47:05;16.60;;;9.52;;
51312;SDS011;37397;53.226;10.400;2022-11-20T10:52:10;15.35;;;9.05;;
51312;SDS011;37397;53.226;10.400;2022-11-20T10:54:48;14.05;;;8.32;;
51312;SDS011;37397;53.226;10.400;2022-11-20T11:00:09;12.73;;;8.55;;
51312;SDS011;37397;53.226;10.400;2022-11-20T11:02:42;14.27;;;8.90;;
51312;SDS011;37397;53.226;10.400;2022-11-20T11:05:16;13.05;;;8.68;;
51312;SDS011;37397;53.226;10.400;2022-11-20T11:07:48;12.70;;;8.25;;
51312;SDS011;37397;53.226;10.400;2022-11-20T11:12:55;13.40;;;8.93;;
51312;SDS011;37397;53.226;10.400;2022-11-20T11:20:24;14.30;;;8.60;;
51312;SDS011;37397;53.226;10.400;2022-11-20T11:22:58;13.10;;;8.90;;
51312;SDS011;37397;53.226;10.400;2022-11-20T11:25:29;15.20;;;9.82;;
51312;SDS011;37397;53.226;10.400;2022-11-20T11:30:44;14.48;;;9.52;;
51312;SDS011;37397;53.226;10.400;2022-11-20T11:33:32;14.00;;;9.02;;
51312;SDS011;37397;53.226;10.400;2022-11-20T11:36:00;12.60;;;8.38;;
51312;SDS011;37397;53.226;10.400;2022-11-20T11:38:39;11.43;;;7.80;;
51312;SDS011;37397;53.226;10.400;2022-11-20T11:41:10;12.52;;;8.30;;
51312;SDS011;37397;53.226;10.400;2022-11-20T11:43:49;11.40;;;8.07;;
51312;SDS011;37397;53.226;10.400;2022-11-20T11:46:37;12.55;;;7.60;;
51312;SDS011;37397;53.226;10.400;2022-11-20T11:51:41;12.32;;;7.82;;
51312;SDS011;37397;53.226;10.400;2022-11-20T11:54:25;10.90;;;6.65;;
51312;SDS011;37397;53.226;10.400;2022-11-20T11:56:59;11.07;;;6.18;;
51312;SDS011;37397;53.226;10.400;2022-11-20T12:02:34;11.23;;;7.13;;
51312;SDS011;37397;53.226;10.400;2022-11-20T12:07:54;11.50;;;7.00;;
51312;SDS011;37397;53.226;10.400;2022-11-20T12:10:28;11.43;;;6.70;;
51312;SDS011;37397;53.226;10.400;2022-11-20T12:13:01;12.27;;;6.63;;
51312;SDS011;37397;53.226;10.400;2022-11-20T12:15:36;12.50;;;7.00;;
51312;SDS011;37397;53.226;10.400;2022-11-20T12:18:09;12.82;;;7.88;;
51312;SDS011;37397;53.226;10.400;2022-11-20T12:20:43;11.10;;;7.35;;
51312;SDS011;37397;53.226;10.400;2022-11-20T12:23:22;10.45;;;6.25;;
51312;SDS011;37397;53.226;10.400;2022-11-20T12:25:58;9.45;;;5.88;;
51312;SDS011;37397;53.226;10.400;2022-11-20T12:28:40;8.77;;;5.63;;
51312;SDS011;37397;53.226;10.400;2022-11-20T12:34:34;8.88;;;5.95;;
51312;SDS011;37397;53.226;10.400;2022-11-20T12:39:51;9.63;;;6.30;;
51312;SDS011;37397;53.226;10.400;2022-11-20T12:42:37;9.82;;;6.93;;
51312;SDS011;37397;53.226;10.400;2022-11-20T12:57:08;11.18;;;6.75;;
51312;SDS011;37397;53.226;10.400;2022-11-20T12:59:49;10.30;;;6.70;;
51312;SDS011;37397;53.226;10.400;2022-11-20T13:07:44;9.50;;;5.97;;
51312;SDS011;37397;53.226;10.400;2022-11-20T13:16:12;11.77;;;7.22;;
51312;SDS011;37397;53.226;10.400;2022-11-20T13:19:09;11.15;;;6.82;;
51312;SDS011;37397;53.226;10.400;2022-11-20T13:21:42;10.98;;;7.05;;
51312;SDS011;37397;53.226;10.400;2022-11-20T13:27:01;11.48;;;6.93;;
51312;SDS011;37397;53.226;10.400;2022-11-20T13:29:27;9.50;;;6.28;;
51312;SDS011;37397;53.226;10.400;2022-11-20T13:34:33;9.52;;;6.55;;
51312;SDS011;37397;53.226;10.400;2022-11-20T13:37:02;10.65;;;6.43;;
51312;SDS011;37397;53.226;10.400;2022-11-20T13:39:33;9.20;;;5.80;;
51312;SDS011;37397;53.226;10.400;2022-11-20T13:42:01;9.18;;;6.07;;
51312;SDS011;37397;53.226;10.400;2022-11-20T13:44:47;8.55;;;5.80;;
51312;SDS011;37397;53.226;10.400;2022-11-20T13:47:21;8.65;;;5.70;;
51312;SDS011;37397;53.226;10.400;2022-11-20T13:49:48;9.63;;;6.35;;
51312;SDS011;37397;53.226;10.400;2022-11-20T13:52:25;7.82;;;5.32;;
51312;SDS011;37397;53.226;10.400;2022-11-20T14:01:08;9.18;;;5.93;;
51312;SDS011;37397;53.226;10.400;2022-11-20T14:03:46;8.23;;;5.68;;
51312;SDS011;37397;53.226;10.400;2022-11-20T14:06:32;7.55;;;5.60;;
51312;SDS011;37397;53.226;10.400;2022-11-20T14:09:10;9.27;;;5.93;;
51312;SDS011;37397;53.226;10.400;2022-11-20T14:11:45;9.30;;;6.00;;
51312;SDS011;37397;53.226;10.400;2022-11-20T14:14:15;9.52;;;5.70;;
51312;SDS011;37397;53.226;10.400;2022-11-20T14:16:43;10.10;;;6.28;;
51312;SDS011;37397;53.226;10.400;2022-11-20T14:21:52;8.05;;;5.25;;
51312;SDS011;37397;53.226;10.400;2022-11-20T14:24:21;8.45;;;5.95;;
51312;SDS011;37397;53.226;10.400;2022-11-20T14:26:50;8.00;;;5.18;;
51312;SDS011;37397;53.226;10.400;2022-11-20T14:31:45;9.00;;;5.53;;
51312;SDS011;37397;53.226;10.400;2022-11-20T14:34:23;8.57;;;5.20;;
51312;SDS011;37397;53.226;10.400;2022-11-20T14:36:52;9.13;;;5.25;;
51312;SDS011;37397;53.226;10.400;2022-11-20T14:39:25;7.82;;;5.05;;
51312;SDS011;37397;53.226;10.400;2022-11-20T14:41:57;7.78;;;5.15;;
51312;SDS011;37397;53.226;10.400;2022-11-20T14:44:26;9.02;;;5.13;;
51312;SDS011;37397;53.226;10.400;2022-11-20T14:46:55;7.28;;;5.10;;
51312;SDS011;37397;53.226;10.400;2022-11-20T14:49:23;6.13;;;4.40;;
51312;SDS011;37397;53.226;10.400;2022-11-20T14:52:00;8.25;;;5.45;;
51312;SDS011;37397;53.226;10.400;2022-11-20T14:54:29;8.63;;;5.10;;
51312;SDS011;37397;53.226;10.400;2022-11-20T14:57:00;8.00;;;4.70;;
51312;SDS011;37397;53.226;10.400;2022-11-20T14:59:32;7.38;;;4.43;;
51312;SDS011;37397;53.226;10.400;2022-11-20T15:02:01;7.55;;;4.63;;
51312;SDS011;37397;53.226;10.400;2022-11-20T15:04:56;7.05;;;4.57;;
51312;SDS011;37397;53.226;10.400;2022-11-20T15:07:26;7.43;;;4.57;;
51312;SDS011;37397;53.226;10.400;2022-11-20T15:10:02;9.25;;;4.63;;
51312;SDS011;37397;53.226;10.400;2022-11-20T15:12:47;8.38;;;4.93;;
51312;SDS011;37397;53.226;10.400;2022-11-20T15:15:25;9.93;;;5.43;;
51312;SDS011;37397;53.226;10.400;2022-11-20T15:18:15;7.78;;;5.28;;
51312;SDS011;37397;53.226;10.400;2022-11-20T15:20:46;7.65;;;5.10;;
51312;SDS011;37397;53.226;10.400;2022-11-20T15:23:16;9.18;;;5.65;;
51312;SDS011;37397;53.226;10.400;2022-11-20T15:25:45;8.25;;;5.05;;
51312;SDS011;37397;53.226;10.400;2022-11-20T15:28:16;9.20;;;5.35;;
51312;SDS011;37397;53.226;10.400;2022-11-20T15:30:46;7.13;;;4.93;;
51312;SDS011;37397;53.226;10.400;2022-11-20T15:33:14;7.55;;;4.88;;
51312;SDS011;37397;53.226;10.400;2022-11-20T15:35:42;9.02;;;5.18;;
51312;SDS011;37397;53.226;10.400;2022-11-20T15:38:09;7.72;;;5.10;;
51312;SDS011;37397;53.226;10.400;2022-11-20T15:40:36;8.38;;;5.38;;
51312;SDS011;37397;53.226;10.400;2022-11-20T15:43:03;9.15;;;5.68;;
51312;SDS011;37397;53.226;10.400;2022-11-20T15:45:44;13.25;;;8.40;;
51312;SDS011;37397;53.226;10.400;2022-11-20T15:48:23;10.75;;;6.57;;
51312;SDS011;37397;53.226;10.400;2022-11-20T15:53:36;10.82;;;7.15;;
51312;SDS011;37397;53.226;10.400;2022-11-20T15:56:03;11.65;;;7.57;;
51312;SDS011;37397;53.226;10.400;2022-11-20T15:58:30;11.10;;;7.10;;
51312;SDS011;37397;53.226;10.400;2022-11-20T16:00:57;10.15;;;6.65;;
51312;SDS011;37397;53.226;10.400;2022-11-20T16:03:24;10.65;;;7.30;;
51312;SDS011;37397;53.226;10.400;2022-11-20T16:05:50;10.23;;;7.35;;
51312;SDS011;37397;53.226;10.400;2022-11-20T16:08:17;10.80;;;7.35;;
51312;SDS011;37397;53.226;10.400;2022-11-20T16:10:44;10.85;;;7.55;;
51312;SDS011;37397;53.226;10.400;2022-11-20T16:13:11;11.80;;;6.97;;
51312;SDS011;37397;53.226;10.400;2022-11-20T16:15:58;10.55;;;6.90;;
51312;SDS011;37397;53.226;10.400;2022-11-20T16:18:31;9.97;;;6.40;;
51312;SDS011;37397;53.226;10.400;2022-11-20T16:20:58;12.00;;;7.28;;
51312;SDS011;37397;53.226;10.400;2022-11-20T16:23:25;12.93;;;8.18;;
51312;SDS011;37397;53.226;10.400;2022-11-20T16:25:51;13.82;;;8.93;;
51312;SDS011;37397;53.226;10.400;2022-11-20T16:28:18;14.70;;;9.07;;
51312;SDS011;37397;53.226;10.400;2022-11-20T16:30:48;17.20;;;11.13;;